sensor_id;sensor_type;location;lat;lon;timestamp;P1;durP1;ratioP1;P2;durP2;ratioP2
65045;SDS011;54657;52.022;5.534;2023-09-30T00:00:14;9.88;;;4.03;;
65045;SDS011;54657;52.022;5.534;2023-09-30T00:02:40;10.35;;;4.07;;
65045;SDS011;54657;52.022;5.534;2023-09-30T00:05:06;11.63;;;4.05;;
65045;SDS011;54657;52.022;5.534;2023-09-30T00:07:33;11.80;;;3.90;;
65045;SDS011;54657;52.022;5.534;2023-09-30T00:09:59;12.15;;;4.47;;
65045;SDS011;54657;52.022;5.534;2023-09-30T00:12:25;10.55;;;4.45;;
65045;SDS011;54657;52.022;5.534;2023-09-30T00:14:51;15.43;;;4.72;;
65045;SDS011;54657;52.022;5.534;2023-09-30T00:17:17;9.07;;;4.82;;
65045;SDS011;54657;52.022;5.534;2023-09-30T00:19:42;9.55;;;4.03;;
65045;SDS011;54657;52.022;5.534;2023-09-30T00:22:09;10.38;;;4.50;;
65045;SDS011;54657;52.022;5.534;2023-09-30T00:24:35;12.27;;;5.72;;
65045;SDS011;54657;52.022;5.534;2023-09-30T00:27:01;9.27;;;3.72;;
65045;SDS011;54657;52.022;5.534;2023-09-30T00:29:26;7.82;;;3.80;;
65045;SDS011;54657;52.022;5.534;2023-09-30T00:31:52;7.60;;;4.25;;
65045;SDS011;54657;52.022;5.534;2023-09-30T00:34:17;12.52;;;4.55;;
65045;SDS011;54657;52.022;5.534;2023-09-30T00:36:43;8.73;;;4.53;;
65045;SDS011;54657;52.022;5.534;2023-09-30T00:39:09;9.77;;;4.25;;
65045;SDS011;54657;52.022;5.534;2023-09-30T00:41:35;10.57;;;4.78;;
65045;SDS011;54657;52.022;5.534;2023-09-30T00:44:01;8.40;;;4.20;;
65045;SDS011;54657;52.022;5.534;2023-09-30T00:46:31;9.50;;;3.97;;
65045;SDS011;54657;52.022;5.534;2023-09-30T00:48:58;14.88;;;4.78;;
65045;SDS011;54657;52.022;5.534;2023-09-30T00:51:25;11.60;;;4.68;;
65045;SDS011;54657;52.022;5.534;2023-09-30T00:53:51;10.52;;;4.10;;
65045;SDS011;54657;52.022;5.534;2023-09-30T00:56:19;9.32;;;4.57;;
65045;SDS011;54657;52.022;5.534;2023-09-30T00:58:47;9.50;;;4.30;;
65045;SDS011;54657;52.022;5.534;2023-09-30T01:01:16;10.27;;;4.55;;
65045;SDS011;54657;52.022;5.534;2023-09-30T01:03:41;10.45;;;4.90;;
65045;SDS011;54657;52.022;5.534;2023-09-30T01:06:07;10.00;;;5.15;;
65045;SDS011;54657;52.022;5.534;2023-09-30T01:08:33;8.15;;;4.57;;
65045;SDS011;54657;52.022;5.534;2023-09-30T01:10:59;10.07;;;4.32;;
65045;SDS011;54657;52.022;5.534;2023-09-30T01:13:32;9.45;;;4.38;;
65045;SDS011;54657;52.022;5.534;2023-09-30T01:16:02;8.00;;;4.45;;
65045;SDS011;54657;52.022;5.534;2023-09-30T01:18:31;11.45;;;4.75;;
65045;SDS011;54657;52.022;5.534;2023-09-30T01:20:59;10.98;;;4.80;;
65045;SDS011;54657;52.022;5.534;2023-09-30T01:23:29;9.18;;;4.43;;
65045;SDS011;54657;52.022;5.534;2023-09-30T01:25:55;7.32;;;4.22;;
65045;SDS011;54657;52.022;5.534;2023-09-30T01:28:20;9.30;;;4.57;;
65045;SDS011;54657;52.022;5.534;2023-09-30T01:30:46;7.05;;;4.38;;
65045;SDS011;54657;52.022;5.534;2023-09-30T01:33:12;9.20;;;4.45;;
65045;SDS011;54657;52.022;5.534;2023-09-30T01:35:37;10.23;;;5.13;;
65045;SDS011;54657;52.022;5.534;2023-09-30T01:38:03;9.65;;;5.10;;
65045;SDS011;54657;52.022;5.534;2023-09-30T01:40:28;9.10;;;4.43;;
65045;SDS011;54657;52.022;5.534;2023-09-30T01:42:54;8.88;;;4.40;;
65045;SDS011;54657;52.022;5.534;2023-09-30T01:45:20;6.97;;;4.00;;
65045;SDS011;54657;52.022;5.534;2023-09-30T01:47:46;10.75;;;5.05;;
65045;SDS011;54657;52.022;5.534;2023-09-30T01:50:12;9.95;;;5.50;;
65045;SDS011;54657;52.022;5.534;2023-09-30T01:52:37;8.98;;;4.57;;
65045;SDS011;54657;52.022;5.534;2023-09-30T01:55:03;10.35;;;4.65;;
65045;SDS011;54657;52.022;5.534;2023-09-30T01:57:29;8.57;;;5.00;;
65045;SDS011;54657;52.022;5.534;2023-09-30T01:59:54;11.32;;;5.03;;
65045;SDS011;54657;52.022;5.534;2023-09-30T02:02:20;8.82;;;5.32;;
65045;SDS011;54657;52.022;5.534;2023-09-30T02:04:46;10.18;;;5.25;;
65045;SDS011;54657;52.022;5.534;2023-09-30T02:07:12;13.20;;;5.25;;
65045;SDS011;54657;52.022;5.534;2023-09-30T02:09:37;8.15;;;5.43;;
65045;SDS011;54657;52.022;5.534;2023-09-30T02:12:03;9.90;;;5.03;;
65045;SDS011;54657;52.022;5.534;2023-09-30T02:14:29;12.63;;;5.18;;
65045;SDS011;54657;52.022;5.534;2023-09-30T02:16:54;12.18;;;5.15;;
65045;SDS011;54657;52.022;5.534;2023-09-30T02:19:20;11.10;;;5.38;;
65045;SDS011;54657;52.022;5.534;2023-09-30T02:21:46;10.73;;;5.50;;
65045;SDS011;54657;52.022;5.534;2023-09-30T02:24:13;14.32;;;5.40;;
65045;SDS011;54657;52.022;5.534;2023-09-30T02:26:40;11.82;;;6.00;;
65045;SDS011;54657;52.022;5.534;2023-09-30T02:29:05;12.25;;;5.82;;
65045;SDS011;54657;52.022;5.534;2023-09-30T02:31:32;9.05;;;5.80;;
65045;SDS011;54657;52.022;5.534;2023-09-30T02:33:58;12.10;;;5.90;;
65045;SDS011;54657;52.022;5.534;2023-09-30T02:36:24;8.90;;;5.30;;
65045;SDS011;54657;52.022;5.534;2023-09-30T02:38:50;9.23;;;5.60;;
65045;SDS011;54657;52.022;5.534;2023-09-30T02:41:15;13.10;;;6.13;;
65045;SDS011;54657;52.022;5.534;2023-09-30T02:43:41;9.95;;;5.65;;
65045;SDS011;54657;52.022;5.534;2023-09-30T02:46:06;10.02;;;5.55;;
65045;SDS011;54657;52.022;5.534;2023-09-30T02:48:33;13.52;;;6.75;;
65045;SDS011;54657;52.022;5.534;2023-09-30T02:50:59;11.77;;;6.10;;
65045;SDS011;54657;52.022;5.534;2023-09-30T02:53:24;11.63;;;6.47;;
65045;SDS011;54657;52.022;5.534;2023-09-30T02:55:50;12.25;;;6.28;;
65045;SDS011;54657;52.022;5.534;2023-09-30T02:58:21;11.93;;;6.60;;
65045;SDS011;54657;52.022;5.534;2023-09-30T03:00:50;11.10;;;6.65;;
65045;SDS011;54657;52.022;5.534;2023-09-30T03:03:15;9.60;;;6.38;;
65045;SDS011;54657;52.022;5.534;2023-09-30T03:05:41;11.02;;;6.25;;
65045;SDS011;54657;52.022;5.534;2023-09-30T03:08:07;10.45;;;6.07;;
65045;SDS011;54657;52.022;5.534;2023-09-30T03:10:32;12.68;;;6.95;;
65045;SDS011;54657;52.022;5.534;2023-09-30T03:12:58;11.82;;;6.10;;
65045;SDS011;54657;52.022;5.534;2023-09-30T03:15:27;11.52;;;6.70;;
65045;SDS011;54657;52.022;5.534;2023-09-30T03:17:53;11.10;;;6.95;;
65045;SDS011;54657;52.022;5.534;2023-09-30T03:20:20;9.70;;;6.65;;
65045;SDS011;54657;52.022;5.534;2023-09-30T03:22:47;12.00;;;6.38;;
65045;SDS011;54657;52.022;5.534;2023-09-30T03:25:13;8.88;;;6.53;;
65045;SDS011;54657;52.022;5.534;2023-09-30T03:27:42;11.70;;;6.68;;
65045;SDS011;54657;52.022;5.534;2023-09-30T03:30:11;11.80;;;6.45;;
65045;SDS011;54657;52.022;5.534;2023-09-30T03:32:38;11.80;;;6.90;;
65045;SDS011;54657;52.022;5.534;2023-09-30T03:35:04;12.30;;;7.47;;
65045;SDS011;54657;52.022;5.534;2023-09-30T03:37:33;10.93;;;7.22;;
65045;SDS011;54657;52.022;5.534;2023-09-30T03:39:59;12.65;;;7.47;;
65045;SDS011;54657;52.022;5.534;2023-09-30T03:42:31;11.73;;;7.00;;
65045;SDS011;54657;52.022;5.534;2023-09-30T03:44:56;13.52;;;7.55;;
65045;SDS011;54657;52.022;5.534;2023-09-30T03:47:22;16.17;;;7.45;;
65045;SDS011;54657;52.022;5.534;2023-09-30T03:49:47;13.27;;;7.93;;
65045;SDS011;54657;52.022;5.534;2023-09-30T03:52:13;13.32;;;7.88;;
65045;SDS011;54657;52.022;5.534;2023-09-30T03:54:39;15.57;;;7.97;;
65045;SDS011;54657;52.022;5.534;2023-09-30T03:57:06;14.75;;;8.38;;
65045;SDS011;54657;52.022;5.534;2023-09-30T03:59:32;13.88;;;7.97;;
65045;SDS011;54657;52.022;5.534;2023-09-30T04:01:57;13.70;;;8.52;;
65045;SDS011;54657;52.022;5.534;2023-09-30T04:04:23;13.80;;;8.05;;
65045;SDS011;54657;52.022;5.534;2023-09-30T04:06:50;13.45;;;9.02;;
65045;SDS011;54657;52.022;5.534;2023-09-30T04:09:16;12.60;;;8.25;;
65045;SDS011;54657;52.022;5.534;2023-09-30T04:11:43;16.13;;;9.02;;
65045;SDS011;54657;52.022;5.534;2023-09-30T04:14:08;13.82;;;8.75;;
65045;SDS011;54657;52.022;5.534;2023-09-30T04:16:34;14.70;;;9.05;;
65045;SDS011;54657;52.022;5.534;2023-09-30T04:19:02;13.85;;;8.85;;
65045;SDS011;54657;52.022;5.534;2023-09-30T04:21:28;16.92;;;9.27;;
65045;SDS011;54657;52.022;5.534;2023-09-30T04:23:55;13.48;;;7.45;;
65045;SDS011;54657;52.022;5.534;2023-09-30T04:26:21;15.00;;;9.15;;
65045;SDS011;54657;52.022;5.534;2023-09-30T04:28:47;18.02;;;9.23;;
65045;SDS011;54657;52.022;5.534;2023-09-30T04:31:12;12.75;;;9.13;;
65045;SDS011;54657;52.022;5.534;2023-09-30T04:33:38;14.57;;;9.15;;
65045;SDS011;54657;52.022;5.534;2023-09-30T04:36:05;10.73;;;7.90;;
65045;SDS011;54657;52.022;5.534;2023-09-30T04:38:34;14.85;;;9.38;;
65045;SDS011;54657;52.022;5.534;2023-09-30T04:41:00;13.23;;;8.93;;
65045;SDS011;54657;52.022;5.534;2023-09-30T04:43:26;13.40;;;9.02;;
65045;SDS011;54657;52.022;5.534;2023-09-30T04:45:54;14.95;;;8.57;;
65045;SDS011;54657;52.022;5.534;2023-09-30T04:48:22;15.88;;;9.77;;
65045;SDS011;54657;52.022;5.534;2023-09-30T04:50:48;11.85;;;9.15;;
65045;SDS011;54657;52.022;5.534;2023-09-30T04:53:13;14.55;;;9.07;;
65045;SDS011;54657;52.022;5.534;2023-09-30T04:55:42;15.10;;;9.30;;
65045;SDS011;54657;52.022;5.534;2023-09-30T04:58:08;14.48;;;8.52;;
65045;SDS011;54657;52.022;5.534;2023-09-30T05:00:33;12.52;;;8.63;;
65045;SDS011;54657;52.022;5.534;2023-09-30T05:03:00;15.75;;;8.88;;
65045;SDS011;54657;52.022;5.534;2023-09-30T05:05:26;15.35;;;9.90;;
65045;SDS011;54657;52.022;5.534;2023-09-30T05:07:53;15.60;;;9.77;;
65045;SDS011;54657;52.022;5.534;2023-09-30T05:10:19;12.93;;;9.07;;
65045;SDS011;54657;52.022;5.534;2023-09-30T05:12:44;13.50;;;9.13;;
65045;SDS011;54657;52.022;5.534;2023-09-30T05:15:11;15.90;;;9.90;;
65045;SDS011;54657;52.022;5.534;2023-09-30T05:17:41;16.15;;;10.00;;
65045;SDS011;54657;52.022;5.534;2023-09-30T05:20:08;15.50;;;9.52;;
65045;SDS011;54657;52.022;5.534;2023-09-30T05:22:35;12.27;;;9.27;;
65045;SDS011;54657;52.022;5.534;2023-09-30T05:25:01;13.70;;;9.05;;
65045;SDS011;54657;52.022;5.534;2023-09-30T05:27:27;13.45;;;9.93;;
65045;SDS011;54657;52.022;5.534;2023-09-30T05:29:53;12.50;;;9.38;;
65045;SDS011;54657;52.022;5.534;2023-09-30T05:32:20;19.67;;;10.45;;
65045;SDS011;54657;52.022;5.534;2023-09-30T05:34:46;16.02;;;9.60;;
65045;SDS011;54657;52.022;5.534;2023-09-30T05:37:12;15.95;;;10.55;;
65045;SDS011;54657;52.022;5.534;2023-09-30T05:39:38;14.07;;;9.52;;
65045;SDS011;54657;52.022;5.534;2023-09-30T05:42:04;14.15;;;9.98;;
65045;SDS011;54657;52.022;5.534;2023-09-30T05:44:30;16.13;;;10.85;;
65045;SDS011;54657;52.022;5.534;2023-09-30T05:46:57;17.25;;;10.05;;
65045;SDS011;54657;52.022;5.534;2023-09-30T05:49:22;13.38;;;9.07;;
65045;SDS011;54657;52.022;5.534;2023-09-30T05:51:48;14.73;;;9.68;;
65045;SDS011;54657;52.022;5.534;2023-09-30T05:54:15;16.98;;;9.88;;
65045;SDS011;54657;52.022;5.534;2023-09-30T05:56:41;14.07;;;9.50;;
65045;SDS011;54657;52.022;5.534;2023-09-30T05:59:08;15.77;;;9.82;;
65045;SDS011;54657;52.022;5.534;2023-09-30T06:01:34;20.50;;;10.55;;
65045;SDS011;54657;52.022;5.534;2023-09-30T06:04:01;13.25;;;9.73;;
65045;SDS011;54657;52.022;5.534;2023-09-30T06:06:27;14.65;;;10.50;;
65045;SDS011;54657;52.022;5.534;2023-09-30T06:08:56;15.50;;;9.98;;
65045;SDS011;54657;52.022;5.534;2023-09-30T06:11:25;14.10;;;9.98;;
65045;SDS011;54657;52.022;5.534;2023-09-30T06:13:57;15.88;;;10.02;;
65045;SDS011;54657;52.022;5.534;2023-09-30T06:16:24;15.88;;;9.38;;
65045;SDS011;54657;52.022;5.534;2023-09-30T06:18:51;17.27;;;11.48;;
65045;SDS011;54657;52.022;5.534;2023-09-30T06:21:17;18.40;;;10.45;;
65045;SDS011;54657;52.022;5.534;2023-09-30T06:23:45;13.55;;;10.13;;
65045;SDS011;54657;52.022;5.534;2023-09-30T06:26:16;17.63;;;10.35;;
65045;SDS011;54657;52.022;5.534;2023-09-30T06:28:43;19.98;;;10.30;;
65045;SDS011;54657;52.022;5.534;2023-09-30T06:31:09;18.27;;;10.27;;
65045;SDS011;54657;52.022;5.534;2023-09-30T06:33:36;15.32;;;10.15;;
65045;SDS011;54657;52.022;5.534;2023-09-30T06:36:07;14.40;;;10.48;;
65045;SDS011;54657;52.022;5.534;2023-09-30T06:38:36;18.42;;;10.15;;
65045;SDS011;54657;52.022;5.534;2023-09-30T06:41:02;16.65;;;10.95;;
65045;SDS011;54657;52.022;5.534;2023-09-30T06:43:28;17.42;;;10.98;;
65045;SDS011;54657;52.022;5.534;2023-09-30T06:45:54;16.02;;;10.65;;
65045;SDS011;54657;52.022;5.534;2023-09-30T06:48:20;14.35;;;10.85;;
65045;SDS011;54657;52.022;5.534;2023-09-30T06:50:46;19.55;;;10.82;;
65045;SDS011;54657;52.022;5.534;2023-09-30T06:53:16;15.95;;;10.73;;
65045;SDS011;54657;52.022;5.534;2023-09-30T06:55:42;18.50;;;11.40;;
65045;SDS011;54657;52.022;5.534;2023-09-30T06:58:08;18.20;;;11.25;;
65045;SDS011;54657;52.022;5.534;2023-09-30T07:00:36;19.40;;;11.45;;
65045;SDS011;54657;52.022;5.534;2023-09-30T07:03:02;15.10;;;10.57;;
65045;SDS011;54657;52.022;5.534;2023-09-30T07:05:28;19.00;;;11.90;;
65045;SDS011;54657;52.022;5.534;2023-09-30T07:07:54;16.13;;;11.30;;
65045;SDS011;54657;52.022;5.534;2023-09-30T07:10:20;13.88;;;10.25;;
65045;SDS011;54657;52.022;5.534;2023-09-30T07:12:45;19.00;;;11.27;;
65045;SDS011;54657;52.022;5.534;2023-09-30T07:15:11;18.77;;;11.38;;
65045;SDS011;54657;52.022;5.534;2023-09-30T07:17:38;16.90;;;11.52;;
65045;SDS011;54657;52.022;5.534;2023-09-30T07:20:04;19.35;;;11.32;;
65045;SDS011;54657;52.022;5.534;2023-09-30T07:22:32;17.60;;;11.80;;
65045;SDS011;54657;52.022;5.534;2023-09-30T07:24:58;18.27;;;10.52;;
65045;SDS011;54657;52.022;5.534;2023-09-30T07:27:24;17.02;;;11.68;;
65045;SDS011;54657;52.022;5.534;2023-09-30T07:29:50;18.80;;;11.15;;
65045;SDS011;54657;52.022;5.534;2023-09-30T07:32:15;16.52;;;10.43;;
65045;SDS011;54657;52.022;5.534;2023-09-30T07:34:41;21.20;;;12.10;;
65045;SDS011;54657;52.022;5.534;2023-09-30T07:37:07;15.60;;;11.05;;
65045;SDS011;54657;52.022;5.534;2023-09-30T07:39:33;18.38;;;10.65;;
65045;SDS011;54657;52.022;5.534;2023-09-30T07:42:00;17.88;;;11.43;;
65045;SDS011;54657;52.022;5.534;2023-09-30T07:44:26;15.27;;;10.55;;
65045;SDS011;54657;52.022;5.534;2023-09-30T07:46:52;15.55;;;10.23;;
65045;SDS011;54657;52.022;5.534;2023-09-30T07:49:17;15.57;;;10.95;;
65045;SDS011;54657;52.022;5.534;2023-09-30T07:51:43;13.95;;;11.23;;
65045;SDS011;54657;52.022;5.534;2023-09-30T07:54:09;15.07;;;10.27;;
65045;SDS011;54657;52.022;5.534;2023-09-30T07:56:35;16.63;;;11.10;;
65045;SDS011;54657;52.022;5.534;2023-09-30T07:59:00;19.58;;;12.18;;
65045;SDS011;54657;52.022;5.534;2023-09-30T08:01:26;18.30;;;11.43;;
65045;SDS011;54657;52.022;5.534;2023-09-30T08:03:53;18.85;;;11.40;;
65045;SDS011;54657;52.022;5.534;2023-09-30T08:06:19;16.35;;;10.85;;
65045;SDS011;54657;52.022;5.534;2023-09-30T08:08:45;16.63;;;10.90;;
65045;SDS011;54657;52.022;5.534;2023-09-30T08:11:10;14.52;;;10.68;;
65045;SDS011;54657;52.022;5.534;2023-09-30T08:13:37;17.30;;;11.10;;
65045;SDS011;54657;52.022;5.534;2023-09-30T08:16:03;14.77;;;10.48;;
65045;SDS011;54657;52.022;5.534;2023-09-30T08:18:28;16.25;;;10.48;;
65045;SDS011;54657;52.022;5.534;2023-09-30T08:20:54;17.95;;;10.60;;
65045;SDS011;54657;52.022;5.534;2023-09-30T08:23:19;18.48;;;10.90;;
65045;SDS011;54657;52.022;5.534;2023-09-30T08:25:46;15.73;;;10.60;;
65045;SDS011;54657;52.022;5.534;2023-09-30T08:28:12;15.25;;;11.02;;
65045;SDS011;54657;52.022;5.534;2023-09-30T08:30:38;15.18;;;10.57;;
65045;SDS011;54657;52.022;5.534;2023-09-30T08:33:03;18.65;;;10.68;;
65045;SDS011;54657;52.022;5.534;2023-09-30T08:35:30;14.88;;;10.15;;
65045;SDS011;54657;52.022;5.534;2023-09-30T08:38:00;15.25;;;9.90;;
65045;SDS011;54657;52.022;5.534;2023-09-30T08:40:27;15.25;;;10.18;;
65045;SDS011;54657;52.022;5.534;2023-09-30T08:42:53;16.58;;;9.80;;
65045;SDS011;54657;52.022;5.534;2023-09-30T08:45:18;14.73;;;9.02;;
65045;SDS011;54657;52.022;5.534;2023-09-30T08:47:44;12.10;;;8.80;;
65045;SDS011;54657;52.022;5.534;2023-09-30T08:50:15;17.05;;;9.52;;
65045;SDS011;54657;52.022;5.534;2023-09-30T08:52:41;17.70;;;10.32;;
65045;SDS011;54657;52.022;5.534;2023-09-30T08:55:09;15.07;;;9.30;;
65045;SDS011;54657;52.022;5.534;2023-09-30T08:57:38;17.85;;;9.00;;
65045;SDS011;54657;52.022;5.534;2023-09-30T09:00:07;16.67;;;10.45;;
65045;SDS011;54657;52.022;5.534;2023-09-30T09:02:38;15.13;;;9.38;;
65045;SDS011;54657;52.022;5.534;2023-09-30T09:05:04;15.77;;;9.23;;
65045;SDS011;54657;52.022;5.534;2023-09-30T09:07:31;12.98;;;9.30;;
65045;SDS011;54657;52.022;5.534;2023-09-30T09:10:05;19.08;;;10.07;;
65045;SDS011;54657;52.022;5.534;2023-09-30T09:12:36;17.67;;;9.63;;
65045;SDS011;54657;52.022;5.534;2023-09-30T09:15:04;16.65;;;9.82;;
65045;SDS011;54657;52.022;5.534;2023-09-30T09:17:41;19.30;;;9.93;;
65045;SDS011;54657;52.022;5.534;2023-09-30T09:20:09;18.63;;;10.55;;
65045;SDS011;54657;52.022;5.534;2023-09-30T09:22:45;19.85;;;11.10;;
65045;SDS011;54657;52.022;5.534;2023-09-30T09:25:13;17.00;;;10.95;;
65045;SDS011;54657;52.022;5.534;2023-09-30T09:27:39;18.52;;;10.60;;
65045;SDS011;54657;52.022;5.534;2023-09-30T09:30:21;17.27;;;9.48;;
65045;SDS011;54657;52.022;5.534;2023-09-30T09:33:08;17.15;;;9.93;;
65045;SDS011;54657;52.022;5.534;2023-09-30T09:35:33;13.85;;;8.93;;
65045;SDS011;54657;52.022;5.534;2023-09-30T09:42:59;14.52;;;9.00;;
65045;SDS011;54657;52.022;5.534;2023-09-30T09:45:30;14.50;;;9.18;;
65045;SDS011;54657;52.022;5.534;2023-09-30T09:47:58;15.93;;;9.07;;
65045;SDS011;54657;52.022;5.534;2023-09-30T09:50:24;15.48;;;8.70;;
65045;SDS011;54657;52.022;5.534;2023-09-30T09:52:53;12.93;;;7.60;;
65045;SDS011;54657;52.022;5.534;2023-09-30T09:55:22;16.48;;;8.23;;
65045;SDS011;54657;52.022;5.534;2023-09-30T09:57:48;18.30;;;8.20;;
65045;SDS011;54657;52.022;5.534;2023-09-30T10:00:22;15.25;;;6.78;;
65045;SDS011;54657;52.022;5.534;2023-09-30T10:02:48;12.80;;;7.22;;
65045;SDS011;54657;52.022;5.534;2023-09-30T10:05:15;14.57;;;7.18;;
65045;SDS011;54657;52.022;5.534;2023-09-30T10:10:17;14.43;;;6.63;;
65045;SDS011;54657;52.022;5.534;2023-09-30T10:12:45;12.43;;;6.72;;
65045;SDS011;54657;52.022;5.534;2023-09-30T10:18:10;8.18;;;6.13;;
65045;SDS011;54657;52.022;5.534;2023-09-30T10:20:37;10.43;;;5.97;;
65045;SDS011;54657;52.022;5.534;2023-09-30T10:25:52;8.52;;;4.68;;
65045;SDS011;54657;52.022;5.534;2023-09-30T10:28:32;10.88;;;5.68;;
65045;SDS011;54657;52.022;5.534;2023-09-30T10:31:12;12.25;;;5.15;;
65045;SDS011;54657;52.022;5.534;2023-09-30T10:38:55;11.35;;;5.53;;
65045;SDS011;54657;52.022;5.534;2023-09-30T10:44:43;12.57;;;5.40;;
65045;SDS011;54657;52.022;5.534;2023-09-30T10:49:47;10.68;;;5.00;;
65045;SDS011;54657;52.022;5.534;2023-09-30T10:52:20;10.48;;;4.70;;
65045;SDS011;54657;52.022;5.534;2023-09-30T10:54:50;9.52;;;4.47;;
65045;SDS011;54657;52.022;5.534;2023-09-30T10:57:28;11.65;;;4.47;;
65045;SDS011;54657;52.022;5.534;2023-09-30T11:02:46;8.75;;;3.72;;
65045;SDS011;54657;52.022;5.534;2023-09-30T11:05:13;8.82;;;3.42;;
65045;SDS011;54657;52.022;5.534;2023-09-30T11:07:39;8.88;;;3.60;;
65045;SDS011;54657;52.022;5.534;2023-09-30T11:10:07;7.72;;;3.80;;
65045;SDS011;54657;52.022;5.534;2023-09-30T11:12:33;9.43;;;3.55;;
65045;SDS011;54657;52.022;5.534;2023-09-30T11:14:59;8.40;;;3.35;;
65045;SDS011;54657;52.022;5.534;2023-09-30T11:17:26;9.88;;;3.88;;
65045;SDS011;54657;52.022;5.534;2023-09-30T11:19:52;7.10;;;3.13;;
65045;SDS011;54657;52.022;5.534;2023-09-30T11:22:19;7.82;;;3.08;;
65045;SDS011;54657;52.022;5.534;2023-09-30T11:24:45;9.98;;;3.67;;
65045;SDS011;54657;52.022;5.534;2023-09-30T11:27:11;8.90;;;3.25;;
65045;SDS011;54657;52.022;5.534;2023-09-30T11:29:36;9.05;;;3.03;;
65045;SDS011;54657;52.022;5.534;2023-09-30T11:32:02;10.10;;;3.10;;
65045;SDS011;54657;52.022;5.534;2023-09-30T11:34:31;8.25;;;2.80;;
65045;SDS011;54657;52.022;5.534;2023-09-30T11:36:58;7.57;;;2.55;;
65045;SDS011;54657;52.022;5.534;2023-09-30T11:39:27;10.10;;;3.17;;
65045;SDS011;54657;52.022;5.534;2023-09-30T11:41:53;9.40;;;2.90;;
65045;SDS011;54657;52.022;5.534;2023-09-30T11:44:23;10.38;;;3.83;;
65045;SDS011;54657;52.022;5.534;2023-09-30T11:46:53;9.40;;;3.03;;
65045;SDS011;54657;52.022;5.534;2023-09-30T11:52:02;5.25;;;3.40;;
65045;SDS011;54657;52.022;5.534;2023-09-30T11:54:36;7.32;;;3.22;;
65045;SDS011;54657;52.022;5.534;2023-09-30T11:57:04;6.60;;;2.97;;
65045;SDS011;54657;52.022;5.534;2023-09-30T11:59:30;9.98;;;3.33;;
65045;SDS011;54657;52.022;5.534;2023-09-30T12:01:56;9.20;;;3.60;;
65045;SDS011;54657;52.022;5.534;2023-09-30T12:04:23;6.40;;;2.53;;
65045;SDS011;54657;52.022;5.534;2023-09-30T12:06:49;6.15;;;3.08;;
65045;SDS011;54657;52.022;5.534;2023-09-30T12:09:15;7.88;;;3.42;;
65045;SDS011;54657;52.022;5.534;2023-09-30T12:11:42;7.72;;;2.88;;
65045;SDS011;54657;52.022;5.534;2023-09-30T12:14:11;6.57;;;2.72;;
65045;SDS011;54657;52.022;5.534;2023-09-30T12:16:37;7.20;;;2.90;;
65045;SDS011;54657;52.022;5.534;2023-09-30T12:19:03;8.15;;;3.47;;
65045;SDS011;54657;52.022;5.534;2023-09-30T12:21:33;8.88;;;3.15;;
65045;SDS011;54657;52.022;5.534;2023-09-30T12:24:00;10.38;;;3.80;;
65045;SDS011;54657;52.022;5.534;2023-09-30T12:26:28;10.60;;;3.97;;
65045;SDS011;54657;52.022;5.534;2023-09-30T12:28:53;9.15;;;3.50;;
65045;SDS011;54657;52.022;5.534;2023-09-30T12:31:20;7.80;;;3.53;;
65045;SDS011;54657;52.022;5.534;2023-09-30T12:33:46;8.88;;;3.05;;
65045;SDS011;54657;52.022;5.534;2023-09-30T12:36:17;11.05;;;3.85;;
65045;SDS011;54657;52.022;5.534;2023-09-30T12:38:43;10.48;;;3.25;;
65045;SDS011;54657;52.022;5.534;2023-09-30T12:41:09;11.20;;;3.70;;
65045;SDS011;54657;52.022;5.534;2023-09-30T12:43:35;8.70;;;3.95;;
65045;SDS011;54657;52.022;5.534;2023-09-30T12:46:01;7.65;;;3.45;;
65045;SDS011;54657;52.022;5.534;2023-09-30T12:48:27;10.45;;;3.15;;
65045;SDS011;54657;52.022;5.534;2023-09-30T12:50:52;8.13;;;3.30;;
65045;SDS011;54657;52.022;5.534;2023-09-30T12:53:18;10.68;;;3.50;;
65045;SDS011;54657;52.022;5.534;2023-09-30T12:55:44;8.45;;;3.60;;
65045;SDS011;54657;52.022;5.534;2023-09-30T12:58:09;7.95;;;3.60;;
65045;SDS011;54657;52.022;5.534;2023-09-30T13:00:35;7.05;;;3.58;;
65045;SDS011;54657;52.022;5.534;2023-09-30T13:03:01;6.40;;;3.13;;
65045;SDS011;54657;52.022;5.534;2023-09-30T13:05:28;7.15;;;3.08;;
65045;SDS011;54657;52.022;5.534;2023-09-30T13:07:54;6.90;;;3.03;;
65045;SDS011;54657;52.022;5.534;2023-09-30T13:10:21;9.70;;;3.22;;
65045;SDS011;54657;52.022;5.534;2023-09-30T13:12:47;7.60;;;3.13;;
65045;SDS011;54657;52.022;5.534;2023-09-30T13:15:14;9.05;;;2.97;;
65045;SDS011;54657;52.022;5.534;2023-09-30T13:17:40;7.32;;;2.97;;
65045;SDS011;54657;52.022;5.534;2023-09-30T13:20:07;8.07;;;2.78;;
65045;SDS011;54657;52.022;5.534;2023-09-30T13:22:34;9.75;;;3.30;;
65045;SDS011;54657;52.022;5.534;2023-09-30T13:25:03;7.93;;;3.28;;
65045;SDS011;54657;52.022;5.534;2023-09-30T13:27:34;8.45;;;3.70;;
65045;SDS011;54657;52.022;5.534;2023-09-30T13:30:00;9.20;;;3.55;;
65045;SDS011;54657;52.022;5.534;2023-09-30T13:32:26;8.35;;;3.75;;
65045;SDS011;54657;52.022;5.534;2023-09-30T13:34:53;9.35;;;3.25;;
65045;SDS011;54657;52.022;5.534;2023-09-30T13:37:19;10.52;;;4.10;;
65045;SDS011;54657;52.022;5.534;2023-09-30T13:39:44;7.00;;;3.80;;
65045;SDS011;54657;52.022;5.534;2023-09-30T13:42:10;10.15;;;4.75;;
65045;SDS011;54657;52.022;5.534;2023-09-30T13:44:36;9.13;;;4.07;;
65045;SDS011;54657;52.022;5.534;2023-09-30T13:47:01;7.03;;;3.47;;
65045;SDS011;54657;52.022;5.534;2023-09-30T13:49:28;6.22;;;3.53;;
65045;SDS011;54657;52.022;5.534;2023-09-30T13:51:55;12.52;;;4.00;;
65045;SDS011;54657;52.022;5.534;2023-09-30T13:54:21;7.18;;;3.60;;
65045;SDS011;54657;52.022;5.534;2023-09-30T13:56:46;8.90;;;3.75;;
65045;SDS011;54657;52.022;5.534;2023-09-30T13:59:12;6.47;;;3.80;;
65045;SDS011;54657;52.022;5.534;2023-09-30T14:01:37;8.63;;;4.40;;
65045;SDS011;54657;52.022;5.534;2023-09-30T14:04:06;10.35;;;4.13;;
65045;SDS011;54657;52.022;5.534;2023-09-30T14:06:32;8.95;;;4.32;;
65045;SDS011;54657;52.022;5.534;2023-09-30T14:08:58;9.80;;;4.28;;
65045;SDS011;54657;52.022;5.534;2023-09-30T14:11:23;9.82;;;4.38;;
65045;SDS011;54657;52.022;5.534;2023-09-30T14:13:49;9.25;;;4.70;;
65045;SDS011;54657;52.022;5.534;2023-09-30T14:16:14;9.43;;;4.57;;
65045;SDS011;54657;52.022;5.534;2023-09-30T14:18:40;7.88;;;4.50;;
65045;SDS011;54657;52.022;5.534;2023-09-30T14:21:05;10.15;;;5.13;;
65045;SDS011;54657;52.022;5.534;2023-09-30T14:23:31;9.63;;;4.80;;
65045;SDS011;54657;52.022;5.534;2023-09-30T14:25:57;10.07;;;4.63;;
65045;SDS011;54657;52.022;5.534;2023-09-30T14:28:24;11.45;;;4.60;;
65045;SDS011;54657;52.022;5.534;2023-09-30T14:30:50;8.57;;;4.70;;
65045;SDS011;54657;52.022;5.534;2023-09-30T14:33:16;9.07;;;4.50;;
65045;SDS011;54657;52.022;5.534;2023-09-30T14:35:42;10.85;;;4.45;;
65045;SDS011;54657;52.022;5.534;2023-09-30T14:38:09;8.55;;;4.05;;
65045;SDS011;54657;52.022;5.534;2023-09-30T14:40:36;9.05;;;4.60;;
65045;SDS011;54657;52.022;5.534;2023-09-30T14:43:06;10.65;;;4.85;;
65045;SDS011;54657;52.022;5.534;2023-09-30T14:45:36;11.60;;;4.88;;
65045;SDS011;54657;52.022;5.534;2023-09-30T14:48:03;9.17;;;4.97;;
65045;SDS011;54657;52.022;5.534;2023-09-30T14:50:30;10.60;;;5.07;;
65045;SDS011;54657;52.022;5.534;2023-09-30T14:52:55;10.90;;;5.10;;
65045;SDS011;54657;52.022;5.534;2023-09-30T14:55:21;10.93;;;5.35;;
65045;SDS011;54657;52.022;5.534;2023-09-30T14:57:57;13.50;;;5.40;;
65045;SDS011;54657;52.022;5.534;2023-09-30T15:00:56;13.70;;;6.32;;
65045;SDS011;54657;52.022;5.534;2023-09-30T15:06:24;10.70;;;5.15;;